sensor_id;sensor_type;location;lat;lon;timestamp;temperature;humidity
5176;DHT22;2607;50.934;6.934;2023-05-07T00:00:23;14.90;99.90
5176;DHT22;2607;50.934;6.934;2023-05-07T00:02:49;14.90;99.90
5176;DHT22;2607;50.934;6.934;2023-05-07T00:05:16;14.90;99.90
5176;DHT22;2607;50.934;6.934;2023-05-07T00:07:42;14.90;99.90
5176;DHT22;2607;50.934;6.934;2023-05-07T00:10:09;14.90;99.90
5176;DHT22;2607;50.934;6.934;2023-05-07T00:12:35;14.90;99.90
5176;DHT22;2607;50.934;6.934;2023-05-07T00:15:02;14.90;99.90
5176;DHT22;2607;50.934;6.934;2023-05-07T00:17:29;14.90;99.90
5176;DHT22;2607;50.934;6.934;2023-05-07T00:19:55;14.90;99.90
5176;DHT22;2607;50.934;6.934;2023-05-07T00:22:20;14.90;99.90
5176;DHT22;2607;50.934;6.934;2023-05-07T00:24:46;14.90;99.90
5176;DHT22;2607;50.934;6.934;2023-05-07T00:27:12;14.90;99.90
5176;DHT22;2607;50.934;6.934;2023-05-07T00:29:38;14.90;99.90
5176;DHT22;2607;50.934;6.934;2023-05-07T00:32:03;14.90;99.90
5176;DHT22;2607;50.934;6.934;2023-05-07T00:34:29;14.90;99.90
5176;DHT22;2607;50.934;6.934;2023-05-07T00:36:54;14.80;99.90
5176;DHT22;2607;50.934;6.934;2023-05-07T00:39:20;14.80;99.90
5176;DHT22;2607;50.934;6.934;2023-05-07T00:41:46;14.90;99.90
5176;DHT22;2607;50.934;6.934;2023-05-07T00:44:11;14.80;99.90
5176;DHT22;2607;50.934;6.934;2023-05-07T00:46:37;14.80;99.90
5176;DHT22;2607;50.934;6.934;2023-05-07T00:49:03;14.80;99.90
5176;DHT22;2607;50.934;6.934;2023-05-07T00:51:30;14.80;99.90
5176;DHT22;2607;50.934;6.934;2023-05-07T00:53:56;14.80;99.90
5176;DHT22;2607;50.934;6.934;2023-05-07T00:56:22;14.80;99.90
5176;DHT22;2607;50.934;6.934;2023-05-07T00:58:49;14.80;99.90
5176;DHT22;2607;50.934;6.934;2023-05-07T01:01:14;14.80;99.90
5176;DHT22;2607;50.934;6.934;2023-05-07T01:03:42;14.80;99.90
5176;DHT22;2607;50.934;6.934;2023-05-07T01:06:08;14.70;99.90
5176;DHT22;2607;50.934;6.934;2023-05-07T01:08:35;14.70;99.90
5176;DHT22;2607;50.934;6.934;2023-05-07T01:11:01;14.70;99.90
5176;DHT22;2607;50.934;6.934;2023-05-07T01:13:27;14.70;99.90
5176;DHT22;2607;50.934;6.934;2023-05-07T01:15:53;14.70;99.90
5176;DHT22;2607;50.934;6.934;2023-05-07T01:18:19;14.70;99.90
5176;DHT22;2607;50.934;6.934;2023-05-07T01:20:45;14.70;99.90
5176;DHT22;2607;50.934;6.934;2023-05-07T01:23:11;14.70;99.90
5176;DHT22;2607;50.934;6.934;2023-05-07T01:25:37;14.70;99.90
5176;DHT22;2607;50.934;6.934;2023-05-07T01:28:02;14.70;99.90
5176;DHT22;2607;50.934;6.934;2023-05-07T01:30:28;14.70;99.90
5176;DHT22;2607;50.934;6.934;2023-05-07T01:33:01;14.60;99.90
5176;DHT22;2607;50.934;6.934;2023-05-07T01:35:32;14.70;99.90
5176;DHT22;2607;50.934;6.934;2023-05-07T01:38:00;14.70;99.90
5176;DHT22;2607;50.934;6.934;2023-05-07T01:40:27;14.70;99.90
5176;DHT22;2607;50.934;6.934;2023-05-07T01:42:54;14.60;99.90
5176;DHT22;2607;50.934;6.934;2023-05-07T01:45:19;14.60;99.90
5176;DHT22;2607;50.934;6.934;2023-05-07T01:47:45;14.60;99.90
5176;DHT22;2607;50.934;6.934;2023-05-07T01:50:12;14.60;99.90
5176;DHT22;2607;50.934;6.934;2023-05-07T01:52:38;14.60;99.90
5176;DHT22;2607;50.934;6.934;2023-05-07T01:55:04;14.60;99.90
5176;DHT22;2607;50.934;6.934;2023-05-07T01:57:30;14.60;99.90
5176;DHT22;2607;50.934;6.934;2023-05-07T01:59:56;14.60;99.90
5176;DHT22;2607;50.934;6.934;2023-05-07T02:02:21;14.50;99.90
5176;DHT22;2607;50.934;6.934;2023-05-07T02:04:47;14.50;99.90
5176;DHT22;2607;50.934;6.934;2023-05-07T02:07:12;14.60;99.90
5176;DHT22;2607;50.934;6.934;2023-05-07T02:09:38;14.50;99.90
5176;DHT22;2607;50.934;6.934;2023-05-07T02:12:04;14.50;99.90
5176;DHT22;2607;50.934;6.934;2023-05-07T02:14:29;14.50;99.90
5176;DHT22;2607;50.934;6.934;2023-05-07T02:16:55;14.50;99.90
5176;DHT22;2607;50.934;6.934;2023-05-07T02:19:20;14.50;99.90
5176;DHT22;2607;50.934;6.934;2023-05-07T02:21:46;14.50;99.90
5176;DHT22;2607;50.934;6.934;2023-05-07T02:24:13;14.40;99.90
5176;DHT22;2607;50.934;6.934;2023-05-07T02:26:39;14.40;99.90
5176;DHT22;2607;50.934;6.934;2023-05-07T02:29:05;14.40;99.90
5176;DHT22;2607;50.934;6.934;2023-05-07T02:31:31;14.40;99.90
5176;DHT22;2607;50.934;6.934;2023-05-07T02:33:56;14.40;99.90
5176;DHT22;2607;50.934;6.934;2023-05-07T02:36:22;14.30;99.90
5176;DHT22;2607;50.934;6.934;2023-05-07T02:38:47;14.30;99.90
5176;DHT22;2607;50.934;6.934;2023-05-07T02:41:13;14.30;99.90
5176;DHT22;2607;50.934;6.934;2023-05-07T02:43:38;14.30;99.90
5176;DHT22;2607;50.934;6.934;2023-05-07T02:46:05;14.30;99.90
5176;DHT22;2607;50.934;6.934;2023-05-07T02:48:32;14.30;99.90
5176;DHT22;2607;50.934;6.934;2023-05-07T02:50:58;14.20;99.90
5176;DHT22;2607;50.934;6.934;2023-05-07T02:53:24;14.30;99.90
5176;DHT22;2607;50.934;6.934;2023-05-07T02:55:57;14.30;99.90
5176;DHT22;2607;50.934;6.934;2023-05-07T02:58:23;14.20;99.90
5176;DHT22;2607;50.934;6.934;2023-05-07T03:00:48;14.20;99.90
5176;DHT22;2607;50.934;6.934;2023-05-07T03:03:14;14.30;99.90
5176;DHT22;2607;50.934;6.934;2023-05-07T03:05:40;14.30;99.90
5176;DHT22;2607;50.934;6.934;2023-05-07T03:08:07;14.30;99.90
5176;DHT22;2607;50.934;6.934;2023-05-07T03:10:32;14.20;99.90
5176;DHT22;2607;50.934;6.934;2023-05-07T03:12:58;14.30;99.90
5176;DHT22;2607;50.934;6.934;2023-05-07T03:15:23;14.20;99.90
5176;DHT22;2607;50.934;6.934;2023-05-07T03:17:49;14.30;99.90
5176;DHT22;2607;50.934;6.934;2023-05-07T03:20:14;14.30;99.90
5176;DHT22;2607;50.934;6.934;2023-05-07T03:22:40;14.20;99.90
5176;DHT22;2607;50.934;6.934;2023-05-07T03:25:07;14.20;99.90
5176;DHT22;2607;50.934;6.934;2023-05-07T03:27:32;14.20;99.90
5176;DHT22;2607;50.934;6.934;2023-05-07T03:29:58;14.20;99.90
5176;DHT22;2607;50.934;6.934;2023-05-07T03:32:23;14.20;99.90
5176;DHT22;2607;50.934;6.934;2023-05-07T03:34:49;14.20;99.90
5176;DHT22;2607;50.934;6.934;2023-05-07T03:37:15;14.20;99.90
5176;DHT22;2607;50.934;6.934;2023-05-07T03:39:40;14.10;99.90
5176;DHT22;2607;50.934;6.934;2023-05-07T03:42:06;14.20;99.90
5176;DHT22;2607;50.934;6.934;2023-05-07T03:44:32;14.10;99.90
5176;DHT22;2607;50.934;6.934;2023-05-07T03:46:57;14.10;99.90
5176;DHT22;2607;50.934;6.934;2023-05-07T03:49:23;14.10;99.90
5176;DHT22;2607;50.934;6.934;2023-05-07T03:51:49;14.10;99.90
5176;DHT22;2607;50.934;6.934;2023-05-07T03:54:14;14.10;99.90
5176;DHT22;2607;50.934;6.934;2023-05-07T03:56:40;14.10;99.90
5176;DHT22;2607;50.934;6.934;2023-05-07T03:59:05;14.10;99.90
5176;DHT22;2607;50.934;6.934;2023-05-07T04:01:31;14.10;99.90
5176;DHT22;2607;50.934;6.934;2023-05-07T04:03:56;14.10;99.90
5176;DHT22;2607;50.934;6.934;2023-05-07T04:06:22;14.10;99.90
5176;DHT22;2607;50.934;6.934;2023-05-07T04:08:47;14.10;99.90
5176;DHT22;2607;50.934;6.934;2023-05-07T04:11:13;14.10;99.90
5176;DHT22;2607;50.934;6.934;2023-05-07T04:13:39;14.10;99.90
5176;DHT22;2607;50.934;6.934;2023-05-07T04:16:05;14.10;99.90
5176;DHT22;2607;50.934;6.934;2023-05-07T04:18:31;14.10;99.90
5176;DHT22;2607;50.934;6.934;2023-05-07T04:20:56;14.10;99.90
5176;DHT22;2607;50.934;6.934;2023-05-07T04:23:22;14.10;99.90
5176;DHT22;2607;50.934;6.934;2023-05-07T04:25:47;14.10;99.90
5176;DHT22;2607;50.934;6.934;2023-05-07T04:28:13;14.20;99.90
5176;DHT22;2607;50.934;6.934;2023-05-07T04:30:39;14.20;99.90
5176;DHT22;2607;50.934;6.934;2023-05-07T04:33:05;14.20;99.90
5176;DHT22;2607;50.934;6.934;2023-05-07T04:35:32;14.20;99.90
5176;DHT22;2607;50.934;6.934;2023-05-07T04:37:57;14.30;99.90
5176;DHT22;2607;50.934;6.934;2023-05-07T04:40:23;14.30;99.90
5176;DHT22;2607;50.934;6.934;2023-05-07T04:42:48;14.30;99.90
5176;DHT22;2607;50.934;6.934;2023-05-07T04:45:14;14.30;99.90
5176;DHT22;2607;50.934;6.934;2023-05-07T04:47:40;14.30;99.90
5176;DHT22;2607;50.934;6.934;2023-05-07T04:50:07;14.40;99.90
5176;DHT22;2607;50.934;6.934;2023-05-07T04:52:33;14.40;99.90
5176;DHT22;2607;50.934;6.934;2023-05-07T04:55:00;14.40;99.90
5176;DHT22;2607;50.934;6.934;2023-05-07T04:57:26;14.40;99.90
5176;DHT22;2607;50.934;6.934;2023-05-07T04:59:51;14.50;99.90
5176;DHT22;2607;50.934;6.934;2023-05-07T05:02:17;14.50;99.90
5176;DHT22;2607;50.934;6.934;2023-05-07T05:04:42;14.50;99.90
5176;DHT22;2607;50.934;6.934;2023-05-07T05:07:08;14.50;99.90
5176;DHT22;2607;50.934;6.934;2023-05-07T05:09:33;14.50;99.90
5176;DHT22;2607;50.934;6.934;2023-05-07T05:11:59;14.50;99.90
5176;DHT22;2607;50.934;6.934;2023-05-07T05:14:25;14.50;99.90
5176;DHT22;2607;50.934;6.934;2023-05-07T05:16:51;14.50;99.90
5176;DHT22;2607;50.934;6.934;2023-05-07T05:19:16;14.50;99.90
5176;DHT22;2607;50.934;6.934;2023-05-07T05:21:42;14.50;99.90
5176;DHT22;2607;50.934;6.934;2023-05-07T05:24:07;14.60;99.90
5176;DHT22;2607;50.934;6.934;2023-05-07T05:26:33;14.60;99.90
5176;DHT22;2607;50.934;6.934;2023-05-07T05:28:59;14.60;99.90
5176;DHT22;2607;50.934;6.934;2023-05-07T05:31:24;14.60;99.90
5176;DHT22;2607;50.934;6.934;2023-05-07T05:33:50;14.60;99.90
5176;DHT22;2607;50.934;6.934;2023-05-07T05:36:16;14.60;99.90
5176;DHT22;2607;50.934;6.934;2023-05-07T05:38:41;14.70;99.90
5176;DHT22;2607;50.934;6.934;2023-05-07T05:41:07;14.70;99.90
5176;DHT22;2607;50.934;6.934;2023-05-07T05:43:33;14.70;99.90
5176;DHT22;2607;50.934;6.934;2023-05-07T05:45:58;14.70;99.90
5176;DHT22;2607;50.934;6.934;2023-05-07T05:48:24;14.70;99.90
5176;DHT22;2607;50.934;6.934;2023-05-07T05:50:49;14.70;99.90
5176;DHT22;2607;50.934;6.934;2023-05-07T05:53:15;14.70;99.90
5176;DHT22;2607;50.934;6.934;2023-05-07T05:55:41;14.80;99.90
5176;DHT22;2607;50.934;6.934;2023-05-07T05:58:08;14.80;99.90
5176;DHT22;2607;50.934;6.934;2023-05-07T06:00:34;14.80;99.90
5176;DHT22;2607;50.934;6.934;2023-05-07T06:02:59;14.80;99.90
5176;DHT22;2607;50.934;6.934;2023-05-07T06:05:25;14.90;99.90
5176;DHT22;2607;50.934;6.934;2023-05-07T06:07:51;14.90;99.90
5176;DHT22;2607;50.934;6.934;2023-05-07T06:10:16;15.00;99.90
5176;DHT22;2607;50.934;6.934;2023-05-07T06:12:42;15.00;99.90
5176;DHT22;2607;50.934;6.934;2023-05-07T06:15:08;15.10;99.90
5176;DHT22;2607;50.934;6.934;2023-05-07T06:17:34;15.10;99.90
5176;DHT22;2607;50.934;6.934;2023-05-07T06:19:59;15.10;99.90
5176;DHT22;2607;50.934;6.934;2023-05-07T06:22:25;15.10;99.90
5176;DHT22;2607;50.934;6.934;2023-05-07T06:24:50;15.20;99.90
5176;DHT22;2607;50.934;6.934;2023-05-07T06:27:16;15.20;99.90
5176;DHT22;2607;50.934;6.934;2023-05-07T06:29:41;15.30;99.90
5176;DHT22;2607;50.934;6.934;2023-05-07T06:32:11;15.30;99.90
5176;DHT22;2607;50.934;6.934;2023-05-07T06:34:37;15.40;99.90
5176;DHT22;2607;50.934;6.934;2023-05-07T06:37:03;15.40;99.90
5176;DHT22;2607;50.934;6.934;2023-05-07T06:39:28;15.40;99.90
5176;DHT22;2607;50.934;6.934;2023-05-07T06:41:54;15.50;99.90
5176;DHT22;2607;50.934;6.934;2023-05-07T06:44:20;15.50;99.90
5176;DHT22;2607;50.934;6.934;2023-05-07T06:46:45;15.50;99.90
5176;DHT22;2607;50.934;6.934;2023-05-07T06:49:12;15.50;99.90
5176;DHT22;2607;50.934;6.934;2023-05-07T06:51:38;15.60;99.90
5176;DHT22;2607;50.934;6.934;2023-05-07T06:54:04;15.60;99.90
5176;DHT22;2607;50.934;6.934;2023-05-07T06:56:31;15.70;99.90
5176;DHT22;2607;50.934;6.934;2023-05-07T06:58:56;15.70;99.90
5176;DHT22;2607;50.934;6.934;2023-05-07T07:01:22;15.70;99.90
5176;DHT22;2607;50.934;6.934;2023-05-07T07:03:47;15.70;99.90
5176;DHT22;2607;50.934;6.934;2023-05-07T07:06:13;15.70;99.90
5176;DHT22;2607;50.934;6.934;2023-05-07T07:08:39;15.80;99.90
5176;DHT22;2607;50.934;6.934;2023-05-07T07:11:05;15.80;99.90
5176;DHT22;2607;50.934;6.934;2023-05-07T07:13:31;15.80;99.90
5176;DHT22;2607;50.934;6.934;2023-05-07T07:15:56;15.80;99.90
5176;DHT22;2607;50.934;6.934;2023-05-07T07:18:22;15.90;99.90
5176;DHT22;2607;50.934;6.934;2023-05-07T07:20:47;15.90;99.90
5176;DHT22;2607;50.934;6.934;2023-05-07T07:23:13;15.90;99.90
5176;DHT22;2607;50.934;6.934;2023-05-07T07:25:39;15.90;99.90
5176;DHT22;2607;50.934;6.934;2023-05-07T07:28:05;16.00;99.90
5176;DHT22;2607;50.934;6.934;2023-05-07T07:30:31;16.00;99.90
5176;DHT22;2607;50.934;6.934;2023-05-07T07:32:57;16.00;99.90
5176;DHT22;2607;50.934;6.934;2023-05-07T07:35:31;16.10;99.90
5176;DHT22;2607;50.934;6.934;2023-05-07T07:37:56;16.10;99.90
5176;DHT22;2607;50.934;6.934;2023-05-07T07:40:22;16.10;99.90
5176;DHT22;2607;50.934;6.934;2023-05-07T07:42:48;16.10;99.90
5176;DHT22;2607;50.934;6.934;2023-05-07T07:45:14;16.20;99.90
5176;DHT22;2607;50.934;6.934;2023-05-07T07:47:40;16.20;99.90
5176;DHT22;2607;50.934;6.934;2023-05-07T07:50:06;16.30;99.90
5176;DHT22;2607;50.934;6.934;2023-05-07T07:52:32;16.30;99.90
5176;DHT22;2607;50.934;6.934;2023-05-07T07:54:58;16.40;99.90
5176;DHT22;2607;50.934;6.934;2023-05-07T07:57:23;16.40;99.90
5176;DHT22;2607;50.934;6.934;2023-05-07T07:59:49;16.50;99.90
5176;DHT22;2607;50.934;6.934;2023-05-07T08:02:15;16.60;99.90
5176;DHT22;2607;50.934;6.934;2023-05-07T08:04:41;16.70;99.90
5176;DHT22;2607;50.934;6.934;2023-05-07T08:07:11;16.70;99.90
5176;DHT22;2607;50.934;6.934;2023-05-07T08:09:38;16.80;99.90
5176;DHT22;2607;50.934;6.934;2023-05-07T08:12:04;16.80;99.90
5176;DHT22;2607;50.934;6.934;2023-05-07T08:14:30;16.90;99.90
5176;DHT22;2607;50.934;6.934;2023-05-07T08:16:56;16.90;99.90
5176;DHT22;2607;50.934;6.934;2023-05-07T08:19:21;17.00;99.90
5176;DHT22;2607;50.934;6.934;2023-05-07T08:21:48;17.10;99.90
5176;DHT22;2607;50.934;6.934;2023-05-07T08:24:14;17.20;99.90
5176;DHT22;2607;50.934;6.934;2023-05-07T08:26:40;17.20;99.90
5176;DHT22;2607;50.934;6.934;2023-05-07T08:29:05;17.20;99.90
5176;DHT22;2607;50.934;6.934;2023-05-07T08:31:31;17.30;99.90
5176;DHT22;2607;50.934;6.934;2023-05-07T08:33:57;17.30;99.90
5176;DHT22;2607;50.934;6.934;2023-05-07T08:36:23;17.40;99.90
5176;DHT22;2607;50.934;6.934;2023-05-07T08:38:49;17.40;99.90
5176;DHT22;2607;50.934;6.934;2023-05-07T08:41:15;17.50;99.90
5176;DHT22;2607;50.934;6.934;2023-05-07T08:43:41;17.50;99.90
5176;DHT22;2607;50.934;6.934;2023-05-07T08:46:09;17.60;99.90
5176;DHT22;2607;50.934;6.934;2023-05-07T08:48:35;17.60;99.90
5176;DHT22;2607;50.934;6.934;2023-05-07T08:51:01;17.70;99.90
5176;DHT22;2607;50.934;6.934;2023-05-07T08:53:27;17.80;99.90
5176;DHT22;2607;50.934;6.934;2023-05-07T08:55:53;17.80;99.90
5176;DHT22;2607;50.934;6.934;2023-05-07T08:58:18;17.90;99.90
5176;DHT22;2607;50.934;6.934;2023-05-07T09:00:44;17.90;99.90
5176;DHT22;2607;50.934;6.934;2023-05-07T09:03:10;18.00;99.90
5176;DHT22;2607;50.934;6.934;2023-05-07T09:05:39;18.00;99.90
5176;DHT22;2607;50.934;6.934;2023-05-07T09:08:06;18.00;99.90
5176;DHT22;2607;50.934;6.934;2023-05-07T09:10:33;17.90;99.90
5176;DHT22;2607;50.934;6.934;2023-05-07T09:12:59;18.00;99.90
5176;DHT22;2607;50.934;6.934;2023-05-07T09:15:27;18.00;99.90
5176;DHT22;2607;50.934;6.934;2023-05-07T09:17:53;18.00;99.90
5176;DHT22;2607;50.934;6.934;2023-05-07T09:20:19;18.00;99.90
5176;DHT22;2607;50.934;6.934;2023-05-07T09:22:44;18.00;99.90
5176;DHT22;2607;50.934;6.934;2023-05-07T09:25:10;18.10;99.90
5176;DHT22;2607;50.934;6.934;2023-05-07T09:27:36;18.10;99.90
5176;DHT22;2607;50.934;6.934;2023-05-07T09:30:06;18.20;99.90
5176;DHT22;2607;50.934;6.934;2023-05-07T09:32:35;18.30;99.90
5176;DHT22;2607;50.934;6.934;2023-05-07T09:35:01;18.30;99.90
5176;DHT22;2607;50.934;6.934;2023-05-07T09:37:30;18.30;99.90
5176;DHT22;2607;50.934;6.934;2023-05-07T09:39:56;18.30;99.90
5176;DHT22;2607;50.934;6.934;2023-05-07T09:42:25;18.30;99.90
5176;DHT22;2607;50.934;6.934;2023-05-07T09:44:53;18.30;99.90
5176;DHT22;2607;50.934;6.934;2023-05-07T09:47:20;18.40;99.90
5176;DHT22;2607;50.934;6.934;2023-05-07T09:49:48;18.40;99.90
5176;DHT22;2607;50.934;6.934;2023-05-07T09:52:16;18.40;99.90
5176;DHT22;2607;50.934;6.934;2023-05-07T09:54:43;18.50;99.90
5176;DHT22;2607;50.934;6.934;2023-05-07T09:57:11;18.50;99.90
5176;DHT22;2607;50.934;6.934;2023-05-07T09:59:37;18.50;99.90
5176;DHT22;2607;50.934;6.934;2023-05-07T10:02:04;18.60;99.90
5176;DHT22;2607;50.934;6.934;2023-05-07T10:04:31;18.60;99.90
5176;DHT22;2607;50.934;6.934;2023-05-07T10:06:57;18.60;99.90
5176;DHT22;2607;50.934;6.934;2023-05-07T10:09:25;18.60;99.90
5176;DHT22;2607;50.934;6.934;2023-05-07T10:11:52;18.60;99.90
5176;DHT22;2607;50.934;6.934;2023-05-07T10:14:20;18.60;99.90
5176;DHT22;2607;50.934;6.934;2023-05-07T10:16:47;18.60;99.90
5176;DHT22;2607;50.934;6.934;2023-05-07T10:19:14;18.70;99.90
5176;DHT22;2607;50.934;6.934;2023-05-07T10:21:56;18.70;99.90
5176;DHT22;2607;50.934;6.934;2023-05-07T10:24:33;18.90;99.90
5176;DHT22;2607;50.934;6.934;2023-05-07T10:27:05;19.00;99.90
5176;DHT22;2607;50.934;6.934;2023-05-07T10:29:47;19.10;99.90
5176;DHT22;2607;50.934;6.934;2023-05-07T10:34:54;19.20;99.90
5176;DHT22;2607;50.934;6.934;2023-05-07T10:37:21;19.20;99.90
5176;DHT22;2607;50.934;6.934;2023-05-07T10:39:47;19.30;99.90
5176;DHT22;2607;50.934;6.934;2023-05-07T10:42:14;19.30;99.90
5176;DHT22;2607;50.934;6.934;2023-05-07T10:44:40;19.40;99.90
5176;DHT22;2607;50.934;6.934;2023-05-07T10:47:10;19.50;99.90
5176;DHT22;2607;50.934;6.934;2023-05-07T10:52:19;19.70;99.90
5176;DHT22;2607;50.934;6.934;2023-05-07T10:54:45;19.70;99.90
5176;DHT22;2607;50.934;6.934;2023-05-07T10:57:35;19.70;99.90
5176;DHT22;2607;50.934;6.934;2023-05-07T11:00:03;19.80;99.90
5176;DHT22;2607;50.934;6.934;2023-05-07T11:05:31;20.00;99.90
5176;DHT22;2607;50.934;6.934;2023-05-07T11:07:59;20.20;99.90
5176;DHT22;2607;50.934;6.934;2023-05-07T11:10:53;20.30;99.90
5176;DHT22;2607;50.934;6.934;2023-05-07T11:18:47;20.90;99.90
5176;DHT22;2607;50.934;6.934;2023-05-07T11:23:57;21.30;99.90
5176;DHT22;2607;50.934;6.934;2023-05-07T11:26:24;21.30;99.90
5176;DHT22;2607;50.934;6.934;2023-05-07T11:28:51;21.40;99.90
5176;DHT22;2607;50.934;6.934;2023-05-07T11:31:24;21.30;99.90
5176;DHT22;2607;50.934;6.934;2023-05-07T11:33:52;21.20;99.90
5176;DHT22;2607;50.934;6.934;2023-05-07T11:36:18;21.10;99.70
5176;DHT22;2607;50.934;6.934;2023-05-07T11:38:44;21.00;99.30
5176;DHT22;2607;50.934;6.934;2023-05-07T11:41:10;21.00;99.60
5176;DHT22;2607;50.934;6.934;2023-05-07T11:43:35;20.90;99.20
5176;DHT22;2607;50.934;6.934;2023-05-07T11:46:11;20.80;98.90
5176;DHT22;2607;50.934;6.934;2023-05-07T11:48:38;20.70;99.20
5176;DHT22;2607;50.934;6.934;2023-05-07T11:51:07;20.60;99.40
5176;DHT22;2607;50.934;6.934;2023-05-07T11:53:40;20.50;99.70
5176;DHT22;2607;50.934;6.934;2023-05-07T11:56:07;20.50;99.60
5176;DHT22;2607;50.934;6.934;2023-05-07T11:58:33;20.40;99.90
5176;DHT22;2607;50.934;6.934;2023-05-07T12:00:58;20.30;99.90
5176;DHT22;2607;50.934;6.934;2023-05-07T12:03:24;20.20;99.90
5176;DHT22;2607;50.934;6.934;2023-05-07T12:05:49;20.10;99.90
5176;DHT22;2607;50.934;6.934;2023-05-07T12:08:19;20.00;99.90
5176;DHT22;2607;50.934;6.934;2023-05-07T12:10:47;20.00;99.90
5176;DHT22;2607;50.934;6.934;2023-05-07T12:13:15;20.00;99.90
5176;DHT22;2607;50.934;6.934;2023-05-07T12:15:42;19.90;99.90
5176;DHT22;2607;50.934;6.934;2023-05-07T12:18:08;19.90;99.90
5176;DHT22;2607;50.934;6.934;2023-05-07T12:20:35;19.90;99.90
5176;DHT22;2607;50.934;6.934;2023-05-07T12:23:01;19.90;99.90
5176;DHT22;2607;50.934;6.934;2023-05-07T12:25:30;19.90;99.90
5176;DHT22;2607;50.934;6.934;2023-05-07T12:27:56;20.00;99.90
5176;DHT22;2607;50.934;6.934;2023-05-07T12:30:24;20.00;99.90
5176;DHT22;2607;50.934;6.934;2023-05-07T12:32:55;20.00;99.90
5176;DHT22;2607;50.934;6.934;2023-05-07T12:35:28;20.00;99.90
5176;DHT22;2607;50.934;6.934;2023-05-07T12:37:57;20.00;99.90
5176;DHT22;2607;50.934;6.934;2023-05-07T12:40:38;20.00;99.90
5176;DHT22;2607;50.934;6.934;2023-05-07T12:43:04;19.90;99.90
5176;DHT22;2607;50.934;6.934;2023-05-07T12:45:29;19.80;99.90
5176;DHT22;2607;50.934;6.934;2023-05-07T12:47:56;19.80;99.90
5176;DHT22;2607;50.934;6.934;2023-05-07T12:50:22;19.70;99.90
5176;DHT22;2607;50.934;6.934;2023-05-07T12:52:48;19.70;99.90
5176;DHT22;2607;50.934;6.934;2023-05-07T12:55:16;19.70;99.90
5176;DHT22;2607;50.934;6.934;2023-05-07T12:57:45;19.60;99.90
5176;DHT22;2607;50.934;6.934;2023-05-07T13:00:13;19.60;99.90
5176;DHT22;2607;50.934;6.934;2023-05-07T13:02:41;19.50;99.90
5176;DHT22;2607;50.934;6.934;2023-05-07T13:05:07;19.50;99.90
5176;DHT22;2607;50.934;6.934;2023-05-07T13:07:33;19.40;99.90
5176;DHT22;2607;50.934;6.934;2023-05-07T13:09:59;19.40;99.90
5176;DHT22;2607;50.934;6.934;2023-05-07T13:12:25;19.30;99.90
5176;DHT22;2607;50.934;6.934;2023-05-07T13:14:50;19.30;99.90
5176;DHT22;2607;50.934;6.934;2023-05-07T13:17:16;19.30;99.90
5176;DHT22;2607;50.934;6.934;2023-05-07T13:19:41;19.30;99.90
5176;DHT22;2607;50.934;6.934;2023-05-07T13:22:07;19.30;99.90
5176;DHT22;2607;50.934;6.934;2023-05-07T13:24:32;19.30;99.90
5176;DHT22;2607;50.934;6.934;2023-05-07T13:26:58;19.40;99.90
5176;DHT22;2607;50.934;6.934;2023-05-07T13:29:24;19.40;99.90
5176;DHT22;2607;50.934;6.934;2023-05-07T13:31:58;19.50;99.90
5176;DHT22;2607;50.934;6.934;2023-05-07T13:34:24;19.60;99.90
5176;DHT22;2607;50.934;6.934;2023-05-07T13:36:50;19.60;99.90
5176;DHT22;2607;50.934;6.934;2023-05-07T13:39:15;19.70;99.90
5176;DHT22;2607;50.934;6.934;2023-05-07T13:41:41;19.70;99.90
5176;DHT22;2607;50.934;6.934;2023-05-07T13:44:06;19.80;99.90
5176;DHT22;2607;50.934;6.934;2023-05-07T13:46:32;19.90;99.90
5176;DHT22;2607;50.934;6.934;2023-05-07T13:48:57;19.90;99.90
5176;DHT22;2607;50.934;6.934;2023-05-07T13:51:23;19.90;99.90
5176;DHT22;2607;50.934;6.934;2023-05-07T13:53:49;19.90;99.90
5176;DHT22;2607;50.934;6.934;2023-05-07T13:56:14;19.90;99.90
5176;DHT22;2607;50.934;6.934;2023-05-07T13:58:40;19.90;99.90
5176;DHT22;2607;50.934;6.934;2023-05-07T14:01:06;19.80;99.90
5176;DHT22;2607;50.934;6.934;2023-05-07T14:03:32;19.80;99.90
5176;DHT22;2607;50.934;6.934;2023-05-07T14:05:59;19.70;99.90
5176;DHT22;2607;50.934;6.934;2023-05-07T14:08:26;19.70;99.90
5176;DHT22;2607;50.934;6.934;2023-05-07T14:10:52;19.70;99.90
5176;DHT22;2607;50.934;6.934;2023-05-07T14:13:18;19.70;99.90
5176;DHT22;2607;50.934;6.934;2023-05-07T14:15:43;19.70;99.90
5176;DHT22;2607;50.934;6.934;2023-05-07T14:18:12;19.80;99.90
5176;DHT22;2607;50.934;6.934;2023-05-07T14:20:38;19.80;99.90
5176;DHT22;2607;50.934;6.934;2023-05-07T14:23:03;19.80;99.90
5176;DHT22;2607;50.934;6.934;2023-05-07T14:25:29;19.80;99.90
5176;DHT22;2607;50.934;6.934;2023-05-07T14:27:55;19.70;99.90
5176;DHT22;2607;50.934;6.934;2023-05-07T14:30:21;19.70;99.90
5176;DHT22;2607;50.934;6.934;2023-05-07T14:32:49;19.70;99.90
5176;DHT22;2607;50.934;6.934;2023-05-07T14:35:15;19.70;99.90
5176;DHT22;2607;50.934;6.934;2023-05-07T14:37:41;19.70;99.90
5176;DHT22;2607;50.934;6.934;2023-05-07T14:40:07;19.70;99.90
5176;DHT22;2607;50.934;6.934;2023-05-07T14:42:32;19.60;99.90
5176;DHT22;2607;50.934;6.934;2023-05-07T14:44:58;19.60;99.90
5176;DHT22;2607;50.934;6.934;2023-05-07T14:47:23;19.60;99.90
5176;DHT22;2607;50.934;6.934;2023-05-07T14:49:49;19.60;99.90
5176;DHT22;2607;50.934;6.934;2023-05-07T14:52:15;19.70;99.90
5176;DHT22;2607;50.934;6.934;2023-05-07T14:54:40;19.70;99.90
5176;DHT22;2607;50.934;6.934;2023-05-07T14:57:08;19.70;99.90
5176;DHT22;2607;50.934;6.934;2023-05-07T14:59:34;19.70;99.90
5176;DHT22;2607;50.934;6.934;2023-05-07T15:02:00;19.70;99.90
5176;DHT22;2607;50.934;6.934;2023-05-07T15:04:26;19.70;99.90
5176;DHT22;2607;50.934;6.934;2023-05-07T15:06:51;19.70;99.90
5176;DHT22;2607;50.934;6.934;2023-05-07T15:09:19;19.70;99.90
5176;DHT22;2607;50.934;6.934;2023-05-07T15:11:44;19.60;99.90
5176;DHT22;2607;50.934;6.934;2023-05-07T15:14:10;19.50;99.90
5176;DHT22;2607;50.934;6.934;2023-05-07T15:16:35;19.40;99.90
5176;DHT22;2607;50.934;6.934;2023-05-07T15:19:01;19.40;99.90
5176;DHT22;2607;50.934;6.934;2023-05-07T15:21:27;19.30;99.90
5176;DHT22;2607;50.934;6.934;2023-05-07T15:23:52;19.30;99.90
5176;DHT22;2607;50.934;6.934;2023-05-07T15:26:18;19.40;99.90
5176;DHT22;2607;50.934;6.934;2023-05-07T15:28:44;19.40;99.90
5176;DHT22;2607;50.934;6.934;2023-05-07T15:31:09;19.40;99.90
5176;DHT22;2607;50.934;6.934;2023-05-07T15:33:35;19.40;99.90
5176;DHT22;2607;50.934;6.934;2023-05-07T15:36:00;19.50;99.90
5176;DHT22;2607;50.934;6.934;2023-05-07T15:38:28;19.50;99.90
5176;DHT22;2607;50.934;6.934;2023-05-07T15:40:53;19.50;99.90
5176;DHT22;2607;50.934;6.934;2023-05-07T15:43:20;19.40;99.90
5176;DHT22;2607;50.934;6.934;2023-05-07T15:45:46;19.40;99.90
5176;DHT22;2607;50.934;6.934;2023-05-07T15:48:11;19.40;99.90
5176;DHT22;2607;50.934;6.934;2023-05-07T15:50:37;19.40;99.90
5176;DHT22;2607;50.934;6.934;2023-05-07T15:53:03;19.30;99.90
5176;DHT22;2607;50.934;6.934;2023-05-07T15:55:30;19.40;99.90
5176;DHT22;2607;50.934;6.934;2023-05-07T15:57:56;19.40;99.90
5176;DHT22;2607;50.934;6.934;2023-05-07T16:00:25;19.30;99.90
5176;DHT22;2607;50.934;6.934;2023-05-07T16:02:51;19.50;99.90
5176;DHT22;2607;50.934;6.934;2023-05-07T16:05:17;19.50;99.90
5176;DHT22;2607;50.934;6.934;2023-05-07T16:07:42;19.40;99.90
5176;DHT22;2607;50.934;6.934;2023-05-07T16:10:09;19.40;99.90
5176;DHT22;2607;50.934;6.934;2023-05-07T16:12:35;19.40;99.90